FW0901 Wellfleet MA US current weather conditions

sailwx.info

Wind from 190 at 6 knots gusting 12

Air temperature 25.0° C
Dewpoint 22.3° C

Last reported at 2019-Aug-21 20:01 UTC.
Time now 2019-Aug-21 20:45 UTC

Location: N 41°56' W 070°02'.
View on Google Maps.

See reports from other nearby stations

  
Tides and Currents Weather Stations Pressure Air Temp Water Temp Dewpoint Dewpoint Depression Visibility Wind Speed Wind Dir Waves Ship Positions
date/time (UTC)wind fromknots sea level pressurealtimeterstation pressurevisibilityair tempwater tempwave heightnotes
2019-Aug-21 20:01 190 6 gusting 12 25.0
2019-Aug-21 19:47 244 4 gusting 12 25.0
2019-Aug-21 19:32 173 6 gusting 13 25.0
2019-Aug-21 19:17 169 7 gusting 13 25.6
2019-Aug-21 19:01 194 6 gusting 12 25.0
2019-Aug-21 18:46 209 7 gusting 10 24.4
2019-Aug-21 18:31 252 3 gusting 6 24.4
2019-Aug-21 18:16 200 4 gusting 7 24.4
2019-Aug-21 18:01 189 4 gusting 6 24.4
2019-Aug-21 17:46 185 7 gusting 12 23.9
2019-Aug-21 17:31 167 9 gusting 14 23.9
2019-Aug-21 17:16 211 10 gusting 19 24.4
2019-Aug-21 17:01 184 8 gusting 13 25.0
2019-Aug-21 16:45 168 9 gusting 14 25.0
2019-Aug-21 16:31 188 6 gusting 10 25.0
2019-Aug-21 16:16 205 8 gusting 13 25.0
2019-Aug-21 16:01 181 5 gusting 8 25.0
2019-Aug-21 15:46 202 7 gusting 11 25.0
2019-Aug-21 15:31 190 6 gusting 10 25.0
2019-Aug-21 15:16 210 8 gusting 12 25.6
2019-Aug-21 15:00 211 6 gusting 9 25.6
2019-Aug-21 14:47 203 5 gusting 10 25.6
2019-Aug-21 14:31 190 7 gusting 11 25.0
2019-Aug-21 14:16 196 6 gusting 13 25.0
2019-Aug-21 14:00 206 9 gusting 13 25.0
2019-Aug-21 13:46 207 7 gusting 13 25.0
2019-Aug-21 13:30 204 6 gusting 9 25.0
2019-Aug-21 13:15 218 6 gusting 10 24.4
2019-Aug-21 13:00 188 5 gusting 8 23.9
2019-Aug-21 12:45 184 4 gusting 6 23.3
2019-Aug-21 12:30 199 4 gusting 8 23.3
2019-Aug-21 12:15 202 5 gusting 8 22.8
2019-Aug-21 12:02 207 6 gusting 10 22.8
2019-Aug-21 11:46 208 5 gusting 9 22.2
2019-Aug-21 11:31 200 3 gusting 8 22.2
2019-Aug-21 11:16 205 3 gusting 7 22.2
2019-Aug-21 11:01 205 5 gusting 8 22.2
2019-Aug-21 10:47 200 4 gusting 7 22.2
2019-Aug-21 10:31 196 3 gusting 7 22.2
2019-Aug-21 10:16 202 5 gusting 9 22.2
2019-Aug-21 10:01 191 2 gusting 8 22.2
2019-Aug-21 09:45 184 2 gusting 6 22.2
2019-Aug-21 09:31 186 3 gusting 6 22.2
2019-Aug-21 09:16 216 2 gusting 7 22.2
2019-Aug-21 09:00 185 3 gusting 6 22.2
2019-Aug-21 08:45 223 3 gusting 6 21.7
2019-Aug-21 08:31 224 2 gusting 5 21.7
2019-Aug-21 08:15 200 0 gusting 4 21.7
2019-Aug-21 08:00 198 2 gusting 6 21.7
2019-Aug-21 07:45 186 2 gusting 6 21.7
2019-Aug-21 07:30 204 2 gusting 7 21.7
2019-Aug-21 07:15 203 4 gusting 8 21.7
2019-Aug-21 07:00 206 0 gusting 6 21.7
2019-Aug-21 06:45 207 3 gusting 5 21.1
2019-Aug-21 06:30 188 4 gusting 7 21.1
2019-Aug-21 06:15 186 4 gusting 8 21.1
2019-Aug-21 06:00 196 4 gusting 8 21.1
2019-Aug-21 05:46 188 4 gusting 7 21.1
2019-Aug-21 05:45 184 4 gusting 7 21.1
2019-Aug-21 05:32 186 4 gusting 7 21.1
2019-Aug-21 05:18 197 2 gusting 6 21.1
2019-Aug-21 05:02 178 1 gusting 6 21.1
2019-Aug-21 04:48 190 1 gusting 3 21.1
2019-Aug-21 04:32 191 3 gusting 6 21.7
2019-Aug-21 04:16 205 3 gusting 6 21.7
2019-Aug-21 04:01 175 1 gusting 6 21.7
2019-Aug-21 03:46 175 2 gusting 5 21.7
2019-Aug-21 03:31 187 2 gusting 4 21.1
2019-Aug-21 03:17 205 2 gusting 4 21.1
2019-Aug-21 03:01 168 0 gusting 2 21.1
2019-Aug-21 02:46 166 1 gusting 4 21.1
2019-Aug-21 02:31 187 0 gusting 4 21.1
2019-Aug-21 02:16 180 0 gusting 3 20.6
2019-Aug-21 02:01 166 2 gusting 6 21.1
2019-Aug-21 01:46 184 3 gusting 5 20.6
2019-Aug-21 01:31 157 3 gusting 6 21.1
2019-Aug-21 01:15 180 4 gusting 6 20.6
2019-Aug-21 01:02 168 4 gusting 6 20.6
2019-Aug-21 00:45 178 2 gusting 5 21.1
2019-Aug-21 00:31 186 3 gusting 6 21.1
2019-Aug-21 00:16 179 3 gusting 6 21.1
2019-Aug-21 00:01 171 3 gusting 6 21.7
2019-Aug-20 23:46 169 2 gusting 6 22.2
2019-Aug-20 23:30 168 3 gusting 6 22.2
2019-Aug-20 23:16 159 1 gusting 6 22.8
2019-Aug-20 23:01 186 3 gusting 6 23.3
2019-Aug-20 22:46 152 1 gusting 5 23.9
2019-Aug-20 22:31 161 1 gusting 5 23.9
2019-Aug-20 22:16 180 1 gusting 4 23.9
2019-Aug-20 22:00 171 1 gusting 5 24.4
2019-Aug-20 21:45 178 3 gusting 5 24.4
2019-Aug-20 21:30 178 2 gusting 4 25.0
2019-Aug-20 21:15 110 2 gusting 5 25.0
2019-Aug-20 21:00 098 2 gusting 6 25.6
2019-Aug-20 20:45 080 1 gusting 3 26.1
2019-Aug-20 20:31 100 1 gusting 6 26.1
2019-Aug-20 20:15 108 1 gusting 3 26.7
2019-Aug-20 20:00 094 1 gusting 6 26.7
2019-Aug-20 19:45 142 1 gusting 6 26.1
2019-Aug-20 19:30 160 3 gusting 6 26.7
2019-Aug-20 19:15 181 2 gusting 5 26.1
2019-Aug-20 19:00 214 2 gusting 5 26.7
2019-Aug-20 18:45 199 2 gusting 5 26.7
2019-Aug-20 18:30 200 1 gusting 5 26.7
2019-Aug-20 18:00 205 3 gusting 6 27.2
2019-Aug-20 17:45 138 1 gusting 6 27.2
2019-Aug-20 17:15 065 3 gusting 7 27.2
2019-Aug-20 17:00 036 1 gusting 6 27.2
2019-Aug-20 16:45 178 2 gusting 7 26.7
2019-Aug-20 16:30 005 2 gusting 9 27.2
2019-Aug-20 16:17 035 1 gusting 5 27.2
2019-Aug-20 16:01 106 2 gusting 7 26.7
2019-Aug-20 15:46 346 1 gusting 7 26.7
2019-Aug-20 15:31 011 1 gusting 7 26.1
2019-Aug-20 15:18 346 3 gusting 10 25.6
2019-Aug-20 15:01 360 5 gusting 10 25.0
2019-Aug-20 14:46 342 5 gusting 11 25.0
2019-Aug-20 14:31 316 4 gusting 11 25.0
2019-Aug-20 14:16 319 2 gusting 9 24.4
2019-Aug-20 14:00 336 6 gusting 11 24.4
2019-Aug-20 13:45 017 4 gusting 11 24.4
2019-Aug-20 13:31 042 5 gusting 10 23.9
2019-Aug-20 13:15 315 2 gusting 10 23.9
2019-Aug-20 13:00 360 2 gusting 9 23.3
2019-Aug-20 12:45 015 4 gusting 11 23.3
2019-Aug-20 12:30 344 4 gusting 9 22.8
2019-Aug-20 12:15 355 3 gusting 8 22.8
2019-Aug-20 12:01 336 2 gusting 7 22.8
2019-Aug-20 11:46 340 1 gusting 3 22.2
2019-Aug-20 11:31 347 2 gusting 6 21.7
2019-Aug-20 11:17 327 1 gusting 4 21.7
2019-Aug-20 11:01 337 0 gusting 5 21.1
2019-Aug-20 10:46 308 1 gusting 4 21.1
2019-Aug-20 10:30 319 1 gusting 4 21.1
2019-Aug-20 10:15 316 1 gusting 4 21.1
2019-Aug-20 10:00 319 1 gusting 5 21.1
2019-Aug-20 09:45 311 0 gusting 6 21.1
2019-Aug-20 09:30 319 0 gusting 3 21.1
2019-Aug-20 09:15 335 0 gusting 4 21.1
2019-Aug-20 09:00 323 1 gusting 5 21.1
2019-Aug-20 08:45 294 0 gusting 2 21.1
2019-Aug-20 08:30 278 21.1
2019-Aug-20 08:16 278 21.1
2019-Aug-20 08:00 279 21.1
2019-Aug-20 07:45 279 21.1
2019-Aug-20 07:30 263 0 gusting 2 21.1
2019-Aug-20 07:15 264 21.1
2019-Aug-20 07:00 264 21.1
2019-Aug-20 06:45 263 0 gusting 3 21.7
2019-Aug-20 06:30 232 1 gusting 3 21.7
2019-Aug-20 06:15 215 1 gusting 3 21.1
2019-Aug-20 06:00 265 0 gusting 2 21.7
2019-Aug-20 05:45 264 0 gusting 2 21.1
2019-Aug-20 05:30 295 0 gusting 3 21.1
2019-Aug-20 05:15 319 21.1
2019-Aug-20 04:46 302 0 gusting 2 21.1
2019-Aug-20 04:32 298 21.1
2019-Aug-20 04:16 296 21.1
2019-Aug-20 04:01 298 1 gusting 4 21.1
2019-Aug-20 03:47 278 1 gusting 4 21.7
2019-Aug-20 03:31 282 21.7
2019-Aug-20 03:16 265 0 gusting 3 21.7
2019-Aug-20 03:01 273 1 gusting 4 21.7
2019-Aug-20 02:46 261 1 gusting 6 21.7
2019-Aug-20 02:33 271 2 gusting 4 22.2
2019-Aug-20 02:16 307 1 gusting 6 22.2
2019-Aug-20 02:02 300 1 gusting 3 22.8
2019-Aug-20 01:46 304 2 gusting 4 22.8
2019-Aug-20 01:31 297 1 gusting 7 22.8
2019-Aug-20 01:17 271 4 gusting 8 23.3
2019-Aug-20 01:01 346 2 gusting 7 23.9
2019-Aug-20 00:46 263 4 gusting 13 23.9
2019-Aug-20 00:31 261 6 gusting 14 23.9
2019-Aug-20 00:16 302 6 gusting 15 23.9
2019-Aug-20 00:01 238 6 gusting 13 24.4
2019-Aug-19 23:46 227 7 gusting 19 24.4
2019-Aug-19 23:31 310 8 gusting 13 24.4
2019-Aug-19 23:16 283 6 gusting 10 24.4
2019-Aug-19 23:00 258 3 gusting 9 24.4
2019-Aug-19 22:45 221 4 gusting 10 25.0
2019-Aug-19 22:31 280 4 gusting 11 25.0
2019-Aug-19 22:15 168 3 gusting 8 25.0
2019-Aug-19 22:01 163 2 gusting 6 25.6
2019-Aug-19 21:46 200 2 gusting 8 26.1
2019-Aug-19 21:30 221 3 gusting 8 26.1
2019-Aug-19 21:16 112 3 gusting 10 26.1
2019-Aug-19 21:01 169 4 gusting 7 26.1
2019-Aug-19 20:45 199 6 gusting 10 25.6
2019-Aug-19 20:31 182 6 gusting 11 25.6
2019-Aug-19 20:15 178 4 gusting 10 25.6
2019-Aug-19 20:01 185 6 gusting 11 25.6